Time;durP1;ratioP1;P1;durP2;ratioP2;P2;SDS_P1;SDS_P2;PMS_P1;PMS_P2;Temp;Humidity;BMP_temperature;BMP_pressure;BME280_temperature;BME280_humidity;BME280_pressure;Samples;Min_cycle;Max_cycle;Signal;HPM_P1;HPM_P2
2022/02/20 00:00:05;;;;;;;5.85;2.03;;;3.90;54.90;;;;;;5097368;28;20048;-89
2022/02/20 00:02:52;;;;;;;16.25;2.40;;;3.90;20.70;;;;;;5099101;28;20141;-87
2022/02/20 00:05:39;;;;;;;10.40;2.00;;;3.80;1.00;;;;;;5093613;28;20063;-88
2022/02/20 00:08:26;;;;;;;7.10;2.20;;;3.80;1.00;;;;;;5096683;28;20093;-86
2022/02/20 00:11:14;;;;;;;8.68;2.25;;;3.70;99.90;;;;;;5090770;28;20341;-88
2022/02/20 00:14:04;;;;;;;9.05;2.20;;;3.70;1.00;;;;;;5098737;28;20096;-86
2022/02/20 00:16:52;;;;;;;7.85;2.08;;;3.60;1.00;;;;;;5099912;28;20035;-89
2022/02/20 00:19:39;;;;;;;7.32;2.25;;;3.50;99.90;;;;;;5106152;28;20105;-90
2022/02/20 00:22:29;;;;;;;12.40;2.10;;;3.40;1.00;;;;;;5090456;28;20132;-88
2022/02/20 00:25:16;;;;;;;8.98;2.28;;;3.40;99.90;;;;;;5092079;28;20166;-89
2022/02/20 00:28:08;;;;;;;12.02;2.50;;;3.30;99.90;;;;;;5091658;28;20485;-86
2022/02/20 00:31:05;;;;;;;10.07;2.25;;;3.30;99.90;;;;;;5085336;28;20166;-87
2022/02/20 00:33:52;;;;;;;11.30;2.47;;;3.30;99.90;;;;;;5097421;28;20136;-85
2022/02/20 00:36:40;;;;;;;11.90;2.08;;;3.30;99.90;;;;;;5078197;28;20048;-89
2022/02/20 00:39:31;;;;;;;14.75;2.42;;;3.30;1.00;;;;;;5097251;28;20063;-88
2022/02/20 00:42:23;;;;;;;16.23;2.95;;;3.30;99.90;;;;;;5111366;28;20107;-86
2022/02/20 00:45:10;;;;;;;9.10;2.22;;;3.30;99.90;;;;;;5104580;28;20108;-85
2022/02/20 00:48:02;;;;;;;12.85;2.35;;;3.20;99.90;;;;;;5106144;28;20048;-88
2022/02/20 00:50:50;;;;;;;10.50;2.35;;;3.20;1.00;;;;;;5118275;28;20068;-81
2022/02/20 00:53:37;;;;;;;6.55;2.13;;;3.20;99.90;;;;;;5118763;28;20091;-83
2022/02/20 00:56:24;;;;;;;9.75;2.35;;;3.20;99.90;;;;;;5111255;28;20040;-80
2022/02/20 00:59:11;;;;;;;9.70;3.05;;;3.20;11.30;;;;;;5128093;28;20028;-80
2022/02/20 01:01:59;;;;;;;12.82;2.47;;;3.10;99.90;;;;;;5094041;28;20048;-79
2022/02/20 01:04:48;;;;;;;11.00;2.00;;;3.20;99.90;;;;;;5099970;28;20112;-84
2022/02/20 01:07:38;;;;;;;9.55;2.28;;;3.20;99.90;;;;;;5102362;28;20064;-85
2022/02/20 01:10:27;;;;;;;6.30;1.80;;;3.20;99.90;;;;;;5132331;28;20040;-85
2022/02/20 01:13:14;;;;;;;10.38;2.17;;;3.20;99.90;;;;;;5123235;28;20157;-86
2022/02/20 01:16:02;;;;;;;7.68;1.95;;;3.20;99.90;;;;;;5137589;28;20058;-87
2022/02/20 01:18:50;;;;;;;5.90;1.95;;;3.20;99.90;;;;;;5119643;28;20096;-88
2022/02/20 01:21:39;;;;;;;8.98;1.88;;;3.20;99.90;;;;;;5113334;28;20069;-89
2022/02/20 01:24:28;;;;;;;10.20;1.80;;;3.20;99.90;;;;;;5113391;28;20100;-90
2022/02/20 01:27:16;;;;;;;6.38;2.00;;;3.20;99.90;;;;;;5099527;28;20052;-87
2022/02/20 01:30:06;;;;;;;13.25;2.65;;;3.20;99.90;;;;;;5098418;28;20123;-87
2022/02/20 01:32:56;;;;;;;10.90;2.20;;;3.20;1.00;;;;;;5085130;28;20111;-91
2022/02/20 01:35:57;;;;;;;9.55;1.88;;;3.20;1.00;;;;;;5090409;28;20109;-87
2022/02/20 01:38:46;;;;;;;16.40;2.55;;;3.20;1.00;;;;;;5093001;28;20204;-87
2022/02/20 01:41:33;;;;;;;12.05;2.03;;;3.20;1.00;;;;;;5102548;28;20054;-87
2022/02/20 01:44:21;;;;;;;12.40;2.60;;;3.20;1.00;;;;;;5088845;28;20052;-87
2022/02/20 01:47:10;;;;;;;16.20;2.67;;;3.20;11.20;;;;;;5111260;28;20048;-85
2022/02/20 01:49:58;;;;;;;13.75;3.00;;;3.20;1.00;;;;;;5121780;28;20171;-86
2022/02/20 01:52:48;;;;;;;15.10;2.17;;;3.20;1.00;;;;;;5112912;28;20037;-89
2022/02/20 01:55:36;;;;;;;15.88;2.75;;;3.30;1.00;;;;;;5091423;28;20048;-87
2022/02/20 01:58:23;;;;;;;9.07;2.00;;;3.30;1.00;;;;;;5094550;28;20052;-86
2022/02/20 02:01:10;;;;;;;6.82;1.70;;;3.30;1.00;;;;;;5125403;28;20074;-80
2022/02/20 02:03:59;;;;;;;4.43;2.30;;;3.30;99.90;;;;;;5107190;28;20024;-79
2022/02/20 02:06:47;;;;;;;9.40;2.10;;;3.40;99.90;;;;;;5103295;28;20036;-82
2022/02/20 02:09:34;;;;;;;8.57;1.90;;;3.40;99.90;;;;;;5116626;28;20092;-86
2022/02/20 02:12:21;;;;;;;13.70;2.03;;;3.40;99.90;;;;;;5119623;28;20089;-86
2022/02/20 02:15:11;;;;;;;14.57;2.00;;;3.50;99.90;;;;;;5121504;28;20086;-88
2022/02/20 02:17:58;;;;;;;5.32;1.75;;;3.50;99.90;;;;;;5115161;28;20120;-87
2022/02/20 02:20:46;;;;;;;7.20;1.85;;;3.50;99.90;;;;;;5105530;28;20032;-81
2022/02/20 02:23:33;;;;;;;8.55;1.90;;;3.60;99.90;;;;;;5116849;28;20032;-82
2022/02/20 02:26:21;;;;;;;10.38;2.25;;;3.60;99.90;;;;;;5097444;28;20075;-84
2022/02/20 02:29:08;;;;;;;8.93;2.13;;;3.70;99.90;;;;;;5082023;28;20032;-83
2022/02/20 02:31:58;;;;;;;12.60;2.28;;;3.70;99.90;;;;;;5099694;28;20028;-82
2022/02/20 02:34:48;;;;;;;8.38;2.15;;;3.70;99.90;;;;;;5115491;28;20036;-80
2022/02/20 02:37:44;;;;;;;9.98;1.70;;;3.70;99.90;;;;;;5037793;28;20044;-79
2022/02/20 02:40:34;;;;;;;7.45;1.95;;;3.70;99.90;;;;;;5022690;28;20032;-81
2022/02/20 02:43:27;;;;;;;6.00;1.50;;;3.80;99.90;;;;;;5024371;28;20108;-82
2022/02/20 02:46:17;;;;;;;10.40;1.98;;;3.80;99.90;;;;;;5016405;28;20029;-81
2022/02/20 02:49:07;;;;;;;7.03;1.60;;;3.80;90.90;;;;;;5039360;28;20031;-84
2022/02/20 02:51:54;;;;;;;7.68;1.80;;;3.80;1.00;;;;;;5029413;28;20119;-84
2022/02/20 02:54:42;;;;;;;7.82;2.15;;;3.90;31.20;;;;;;5017338;28;20037;-87
2022/02/20 02:57:34;;;;;;;11.35;1.85;;;3.90;88.10;;;;;;5042298;28;20088;-86
2022/02/20 03:00:21;;;;;;;9.18;1.65;;;3.90;99.90;;;;;;5014755;28;20054;-82
2022/02/20 03:03:08;;;;;;;6.57;1.77;;;3.90;99.90;;;;;;5034372;28;20113;-86
2022/02/20 03:05:59;;;;;;;5.50;2.05;;;3.80;99.90;;;;;;5032006;28;20072;-87
2022/02/20 03:08:51;;;;;;;9.43;2.15;;;3.90;99.90;;;;;;5016153;28;20105;-85
2022/02/20 03:11:38;;;;;;;5.45;1.48;;;3.90;1.00;;;;;;5025194;28;20128;-87
2022/02/20 03:14:28;;;;;;;5.55;1.98;;;3.90;35.80;;;;;;5023336;28;20042;-88
2022/02/20 03:17:15;;;;;;;7.15;1.75;;;3.90;99.90;;;;;;5004203;28;20042;-90
2022/02/20 03:20:02;;;;;;;4.82;1.50;;;3.90;99.90;;;;;;5023060;28;20065;-86
2022/02/20 03:22:54;;;;;;;7.32;1.80;;;3.90;1.00;;;;;;5019532;28;20050;-87
2022/02/20 03:25:41;;;;;;;4.38;1.85;;;3.90;99.90;;;;;;5027034;28;20049;-88
2022/02/20 03:28:28;;;;;;;6.85;1.60;;;3.90;99.90;;;;;;4997505;28;20046;-88
2022/02/20 03:31:16;;;;;;;7.63;1.77;;;3.90;1.00;;;;;;5019357;28;20097;-89
2022/02/20 03:34:03;;;;;;;4.32;1.67;;;3.90;1.00;;;;;;5025445;28;20478;-87
2022/02/20 03:36:50;;;;;;;6.55;1.83;;;3.90;99.90;;;;;;5025488;28;20101;-86
2022/02/20 03:39:40;;;;;;;2.50;1.40;;;3.90;1.00;;;;;;5029363;28;20077;-84
2022/02/20 03:42:27;;;;;;;5.50;2.00;;;3.90;1.00;;;;;;5024069;28;20072;-86
2022/02/20 03:45:15;;;;;;;6.68;1.90;;;3.90;6.70;;;;;;5023692;28;20054;-88
2022/02/20 03:48:02;;;;;;;7.88;1.70;;;3.90;99.90;;;;;;5009818;28;20196;-87
2022/02/20 03:50:52;;;;;;;6.57;1.65;;;3.80;99.90;;;;;;5005050;28;20196;-89
2022/02/20 03:53:39;;;;;;;5.50;1.52;;;3.80;99.90;;;;;;5019137;28;20073;-88
2022/02/20 03:56:27;;;;;;;4.35;1.25;;;3.80;99.90;;;;;;5019944;28;20046;-89
2022/02/20 03:59:14;;;;;;;5.88;1.40;;;3.80;99.90;;;;;;5019105;28;20411;-89
2022/02/20 04:02:02;;;;;;;4.50;1.45;;;3.70;99.90;;;;;;5009503;28;20105;-87
2022/02/20 04:04:49;;;;;;;4.45;1.40;;;3.70;99.90;;;;;;5014686;28;20058;-86
2022/02/20 04:07:37;;;;;;;3.88;1.20;;;3.80;99.90;;;;;;5010307;28;20503;-86
2022/02/20 04:10:25;;;;;;;3.05;1.10;;;3.80;99.90;;;;;;5021171;28;20107;-86
2022/02/20 04:13:12;;;;;;;7.22;1.20;;;3.80;99.90;;;;;;4999562;28;20062;-87
2022/02/20 04:16:04;;;;;;;7.93;1.35;;;3.80;99.90;;;;;;5008189;28;20395;-90
2022/02/20 04:18:51;;;;;;;5.70;1.63;;;3.80;1.00;;;;;;4994674;28;20363;-86
2022/02/20 04:21:38;;;;;;;5.25;1.13;;;3.70;1.00;;;;;;4984784;28;20050;-88
2022/02/20 04:24:25;;;;;;;3.42;1.38;;;3.70;1.00;;;;;;4999325;28;20444;-88
2022/02/20 04:27:13;;;;;;;4.97;1.20;;;3.70;1.00;;;;;;4997492;28;20109;-86
2022/02/20 04:30:02;;;;;;;4.75;1.27;;;3.60;1.00;;;;;;5009400;28;20046;-92
2022/02/20 04:32:51;;;;;;;5.22;1.45;;;3.60;1.00;;;;;;5012905;28;20373;-87
2022/02/20 04:35:38;;;;;;;8.07;1.70;;;3.50;19.70;;;;;;5014811;28;20065;-86
2022/02/20 04:38:28;;;;;;;3.03;1.40;;;3.40;34.30;;;;;;5004604;28;20049;-91
2022/02/20 04:41:17;;;;;;;8.27;1.50;;;3.40;33.20;;;;;;5010617;28;20148;-87
2022/02/20 04:44:07;;;;;;;3.10;1.30;;;3.40;40.00;;;;;;5015358;28;20088;-89
2022/02/20 04:46:55;;;;;;;3.83;1.83;;;3.40;44.10;;;;;;5024851;28;20045;-87
2022/02/20 04:49:42;;;;;;;4.70;1.70;;;3.30;45.30;;;;;;5018454;28;20153;-92
2022/02/20 04:52:29;;;;;;;6.68;1.58;;;3.30;42.90;;;;;;5002315;28;20046;-86
2022/02/20 04:55:16;;;;;;;6.63;1.23;;;3.30;41.40;;;;;;5016086;28;20058;-87
2022/02/20 04:58:07;;;;;;;10.90;1.52;;;3.40;42.80;;;;;;5008045;28;20069;-85
2022/02/20 05:00:58;;;;;;;4.07;1.40;;;3.40;47.10;;;;;;4998740;28;20357;-86
2022/02/20 05:03:46;;;;;;;2.97;1.85;;;3.40;57.70;;;;;;5027806;28;20046;-86
2022/02/20 05:06:34;;;;;;;4.88;1.60;;;3.30;67.30;;;;;;5021493;28;20139;-88
2022/02/20 05:09:22;;;;;;;4.65;1.50;;;3.30;72.80;;;;;;5026383;28;20439;-87
2022/02/20 05:12:09;;;;;;;3.22;1.42;;;3.30;59.60;;;;;;5018797;28;20093;-86
2022/02/20 05:14:56;;;;;;;7.88;1.50;;;3.30;67.40;;;;;;5026093;28;20546;-86
2022/02/20 05:17:44;;;;;;;6.60;1.40;;;3.30;75.20;;;;;;4997719;28;20034;-85
2022/02/20 05:20:32;;;;;;;3.35;1.42;;;3.30;80.30;;;;;;5014260;28;20093;-85
2022/02/20 05:23:19;;;;;;;3.65;1.55;;;3.30;84.40;;;;;;5009137;28;20164;-85
2022/02/20 05:26:06;;;;;;;3.63;1.75;;;3.30;90.80;;;;;;5007483;28;20101;-88
2022/02/20 05:29:00;;;;;;;7.47;1.67;;;3.20;91.60;;;;;;5018856;28;20042;-85
2022/02/20 05:31:50;;;;;;;6.70;1.33;;;3.30;91.20;;;;;;5010591;28;20121;-89
2022/02/20 05:34:37;;;;;;;4.32;1.40;;;3.30;89.60;;;;;;5013574;28;20113;-87
2022/02/20 05:37:24;;;;;;;2.63;1.42;;;3.30;92.40;;;;;;5014653;28;20050;-88
2022/02/20 05:40:13;;;;;;;11.13;1.75;;;3.30;92.90;;;;;;5023978;28;20041;-88
2022/02/20 05:43:01;;;;;;;2.90;1.30;;;3.30;81.30;;;;;;5005291;28;20058;-87
2022/02/20 05:45:48;;;;;;;1.40;1.05;;;3.40;75.90;;;;;;5012006;28;20046;-86
2022/02/20 05:48:36;;;;;;;3.17;1.23;;;3.40;63.20;;;;;;4995666;28;20436;-86
2022/02/20 05:51:23;;;;;;;3.90;1.75;;;3.50;43.10;;;;;;5015959;28;20107;-90
2022/02/20 05:54:11;;;;;;;3.45;1.40;;;3.50;52.30;;;;;;5023241;28;20101;-89
2022/02/20 05:57:00;;;;;;;4.82;1.48;;;3.60;48.60;;;;;;5025954;28;20069;-88
2022/02/20 05:59:47;;;;;;;2.38;1.25;;;3.50;62.80;;;;;;5017087;28;20132;-89
2022/02/20 06:02:34;;;;;;;3.47;1.30;;;3.50;65.90;;;;;;5022426;28;20056;-89
2022/02/20 06:05:22;;;;;;;1.77;1.30;;;3.50;60.20;;;;;;5034133;28;20069;-85
2022/02/20 06:08:11;;;;;;;5.85;1.50;;;3.50;57.50;;;;;;5013880;28;20069;-88
2022/02/20 06:11:02;;;;;;;2.85;1.30;;;3.50;58.50;;;;;;4988409;28;20050;-87
2022/02/20 06:13:49;;;;;;;7.55;1.67;;;3.50;48.50;;;;;;5013685;28;20446;-87
2022/02/20 06:16:36;;;;;;;3.53;1.40;;;3.50;48.70;;;;;;5027155;28;20152;-87
2022/02/20 06:19:24;;;;;;;6.07;1.50;;;3.60;39.20;;;;;;5016050;28;20120;-88
2022/02/20 06:22:13;;;;;;;4.93;1.20;;;3.60;33.80;;;;;;4998803;28;20154;-85
2022/02/20 06:25:00;;;;;;;2.83;1.17;;;3.60;27.90;;;;;;5012330;28;20046;-89
2022/02/20 06:27:49;;;;;;;4.60;1.52;;;3.60;28.10;;;;;;5014401;28;20046;-86
2022/02/20 06:30:38;;;;;;;2.20;1.25;;;3.70;26.90;;;;;;5013494;28;20446;-87
2022/02/20 06:33:26;;;;;;;3.00;1.60;;;3.70;21.70;;;;;;5010755;28;20090;-88
2022/02/20 06:36:13;;;;;;;2.88;1.15;;;3.70;17.30;;;;;;5032315;28;20049;-89
2022/02/20 06:39:05;;;;;;;2.90;1.20;;;3.70;19.00;;;;;;5009861;28;20121;-86
2022/02/20 06:41:52;;;;;;;2.88;1.35;;;3.70;10.30;;;;;;5012334;28;20375;-87
2022/02/20 06:44:39;;;;;;;2.50;1.30;;;3.80;2.60;;;;;;5006268;28;20057;-88
2022/02/20 06:47:29;;;;;;;3.90;1.15;;;3.80;5.00;;;;;;5001402;28;20129;-87
2022/02/20 06:50:16;;;;;;;5.60;1.15;;;3.80;1.00;;;;;;5020573;28;20053;-86
2022/02/20 06:53:08;;;;;;;3.97;1.20;;;3.80;1.00;;;;;;5014168;28;20136;-88
2022/02/20 06:55:56;;;;;;;4.78;1.58;;;3.80;1.00;;;;;;5013020;28;20057;-87
2022/02/20 06:58:43;;;;;;;3.35;1.38;;;3.80;1.00;;;;;;5014963;28;20144;-88
2022/02/20 07:01:31;;;;;;;5.32;1.38;;;3.90;1.00;;;;;;5000369;28;20466;-89
2022/02/20 07:16:59;;;;;;;3.92;1.30;;;4.00;1.00;;;;;;6079380;23;20017;-90
2022/02/20 07:24:13;;;;;;;;;;;;;;;;;;;;;
2022/02/20 07:27:53;;;;;;;;;;;;;;;;;;;;;
2022/02/20 07:30:50;;;;;;;2.97;1.20;;;4.10;1.00;;;;;;4962402;28;20170;-88
2022/02/20 07:33:55;;;;;;;2.30;1.10;;;4.10;1.00;;;;;;4907266;29;20044;-89
2022/02/20 07:36:47;;;;;;;2.63;1.30;;;4.20;1.00;;;;;;4908754;29;20143;-87
2022/02/20 07:39:47;;;;;;;2.40;1.30;;;4.20;1.00;;;;;;4912093;29;20059;-87
2022/02/20 07:42:34;;;;;;;2.70;1.45;;;4.30;1.00;;;;;;4915103;29;20072;-88
2022/02/20 07:50:09;;;;;;;3.38;1.23;;;4.40;1.00;;;;;;4909572;29;20044;-88
2022/02/20 07:53:14;;;;;;;2.38;1.10;;;4.40;1.00;;;;;;4911247;29;20082;-86
2022/02/20 07:56:30;;;;;;;3.40;1.17;;;4.50;1.00;;;;;;4845463;29;20087;-84
2022/02/20 07:59:31;;;;;;;3.20;1.40;;;4.70;1.00;;;;;;4922201;29;20051;-88
2022/02/20 08:02:32;;;;;;;6.03;1.65;;;4.70;1.00;;;;;;4921883;29;20047;-88
2022/02/20 08:05:37;;;;;;;;;;;;;;;;;;;;;
2022/02/20 08:08:34;;;;;;;2.80;1.50;;;4.90;99.90;;;;;;4932773;29;20134;-87
2022/02/20 08:11:21;;;;;;;3.55;1.30;;;5.00;99.90;;;;;;4975474;28;20077;-85
2022/02/20 08:14:08;;;;;;;4.13;1.25;;;5.10;99.90;;;;;;4978049;28;20070;-86
2022/02/20 08:16:57;;;;;;;3.38;1.15;;;5.20;99.90;;;;;;4987596;28;20042;-87
2022/02/20 08:19:53;;;;;;;4.13;1.20;;;5.30;99.90;;;;;;4993718;28;20057;-86
2022/02/20 08:22:43;;;;;;;3.42;1.55;;;5.60;15.90;;;;;;4979762;28;20474;-86
2022/02/20 08:25:33;;;;;;;3.10;1.23;;;5.60;88.70;;;;;;4977769;28;20094;-86
2022/02/20 08:28:26;;;;;;;2.28;1.30;;;5.70;1.00;;;;;;4958103;28;20059;-88
2022/02/20 08:31:13;;;;;;;2.93;1.40;;;5.80;1.00;;;;;;4992051;28;20057;-87
2022/02/20 08:34:00;;;;;;;3.42;1.60;;;5.70;1.00;;;;;;4995300;28;20114;-86
2022/02/20 08:36:47;;;;;;;4.13;1.50;;;5.60;1.00;;;;;;4994592;28;20118;-87
2022/02/20 08:39:35;;;;;;;3.53;1.02;;;5.60;1.00;;;;;;4989987;28;20058;-88
2022/02/20 08:42:24;;;;;;;8.18;1.52;;;5.70;1.00;;;;;;4976311;28;20124;-85
2022/02/20 08:45:14;;;;;;;2.25;1.00;;;5.70;1.00;;;;;;4993219;28;20160;-86
2022/02/20 08:48:02;;;;;;;7.15;1.33;;;5.70;1.00;;;;;;4977533;28;20049;-86
2022/02/20 08:50:49;;;;;;;5.82;1.77;;;5.80;1.00;;;;;;4999873;28;20051;-85
2022/02/20 08:57:35;;;;;;;4.60;1.48;;;6.10;99.90;;;;;;4978328;28;20064;-85
2022/02/20 09:00:24;;;;;;;2.72;1.42;;;6.00;29.10;;;;;;5002302;28;20061;-84
2022/02/20 09:03:26;;;;;;;1.92;1.10;;;6.00;99.90;;;;;;5009863;28;20046;-83
2022/02/20 09:06:24;;;;;;;3.35;1.13;;;6.00;99.90;;;;;;5001974;28;20054;-88
2022/02/20 09:09:29;;;;;;;1.90;1.10;;;6.00;99.90;;;;;;5001086;28;20117;-89
2022/02/20 09:12:19;;;;;;;1.92;1.20;;;6.10;99.90;;;;;;4999104;28;20054;-88
2022/02/20 09:15:10;;;;;;;3.85;1.15;;;6.10;1.00;;;;;;4988581;28;20062;-84
2022/02/20 09:18:38;;;;;;;2.60;0.85;;;6.10;1.00;;;;;;4955453;28;20046;-87
2022/02/20 09:21:25;;;;;;;1.20;0.93;;;6.20;10.30;;;;;;4992616;28;20046;-87
2022/02/20 09:24:12;;;;;;;3.38;0.90;;;6.20;99.90;;;;;;4996889;28;20046;-84
2022/02/20 09:27:50;;;;;;;1.45;1.20;;;6.20;99.90;;;;;;4997681;28;20117;-86
2022/02/20 09:31:27;;;;;;;4.32;1.42;;;6.20;71.60;;;;;;5009164;28;20086;-85
2022/02/20 09:34:31;;;;;;;3.83;1.65;;;6.20;99.90;;;;;;5012216;28;20077;-84
2022/02/20 09:37:39;;;;;;;0.98;0.95;;;6.20;1.00;;;;;;4985698;28;20042;-87
2022/02/20 09:40:29;;;;;;;1.30;0.77;;;6.30;99.90;;;;;;4980446;28;20050;-88
2022/02/20 09:43:19;;;;;;;1.67;0.95;;;6.40;99.90;;;;;;4999150;28;20049;-90
2022/02/20 09:46:07;;;;;;;1.38;0.93;;;6.40;1.00;;;;;;5003918;28;20057;-88
2022/02/20 09:48:56;;;;;;;2.00;1.20;;;6.50;99.90;;;;;;5005513;28;20054;-83
2022/02/20 09:51:44;;;;;;;3.45;1.23;;;6.50;1.00;;;;;;4994869;28;20038;-89
2022/02/20 09:54:31;;;;;;;1.48;1.10;;;6.60;1.00;;;;;;5005322;28;20439;-88
2022/02/20 09:57:18;;;;;;;2.22;1.23;;;6.70;99.90;;;;;;5009523;28;20082;-90
2022/02/20 10:00:08;;;;;;;2.35;1.10;;;6.80;1.00;;;;;;4993690;28;20058;-89
2022/02/20 10:03:02;;;;;;;1.80;1.00;;;6.70;34.90;;;;;;5011504;28;20054;-88
2022/02/20 10:05:52;;;;;;;1.73;0.88;;;6.80;99.90;;;;;;4991811;28;20051;-89
2022/02/20 10:08:47;;;;;;;3.08;1.13;;;6.70;99.90;;;;;;4988693;28;20058;-88
2022/02/20 10:11:35;;;;;;;1.52;1.00;;;6.80;99.90;;;;;;4991976;28;20050;-89
2022/02/20 10:14:24;;;;;;;3.92;1.15;;;6.80;99.90;;;;;;4996853;28;20467;-85
2022/02/20 10:17:18;;;;;;;4.75;1.27;;;6.90;99.90;;;;;;5006468;28;20042;-85
2022/02/20 10:20:05;;;;;;;;;;;6.90;1.00;;;;;;5005853;28;20058;-89
2022/02/20 10:22:53;;;;;;;1.63;0.90;;;7.00;1.00;;;;;;5006925;28;19925;-87
2022/02/20 10:25:45;;;;;;;2.55;1.35;;;7.00;99.90;;;;;;5010410;28;20050;-90
2022/02/20 10:28:32;;;;;;;2.30;0.90;;;6.90;99.90;;;;;;5003404;28;20062;-88
2022/02/20 10:31:52;;;;;;;1.42;0.90;;;6.90;99.90;;;;;;4981150;28;20047;-86
2022/02/20 10:34:39;;;;;;;2.25;1.13;;;7.10;99.90;;;;;;4990907;28;20081;-91
2022/02/20 10:37:33;;;;;;;2.42;1.08;;;7.20;1.00;;;;;;4980904;28;20066;-90
2022/02/20 10:40:29;;;;;;;3.13;0.90;;;7.10;99.90;;;;;;5003635;28;20035;-87
2022/02/20 10:43:33;;;;;;;1.38;1.00;;;7.00;99.90;;;;;;5004215;28;20050;-88
2022/02/20 10:46:27;;;;;;;2.75;0.73;;;7.10;1.00;;;;;;4992823;28;20121;-83
2022/02/20 10:49:32;;;;;;;1.67;0.90;;;7.10;1.00;;;;;;5007557;28;20047;-89
2022/02/20 10:52:32;;;;;;;1.30;0.70;;;7.20;99.90;;;;;;5001769;28;20054;-85
2022/02/20 10:55:22;;;;;;;1.27;0.77;;;7.40;1.00;;;;;;5007184;28;20081;-87
2022/02/20 10:58:19;;;;;;;1.20;0.73;;;7.50;99.90;;;;;;5007617;28;20050;-90
2022/02/20 11:01:19;;;;;;;1.20;0.75;;;7.40;99.90;;;;;;5004991;28;20054;-88
2022/02/20 11:04:10;;;;;;;1.95;0.80;;;7.40;99.90;;;;;;5010100;28;20046;-86
2022/02/20 11:07:00;;;;;;;0.87;0.87;;;7.50;1.00;;;;;;5002260;28;20038;-88
2022/02/20 11:09:47;;;;;;;1.10;0.63;;;7.50;99.90;;;;;;4990818;28;20074;-84
2022/02/20 11:12:37;;;;;;;1.48;0.70;;;7.70;99.90;;;;;;4993666;28;20100;-88
2022/02/20 11:15:26;;;;;;;1.52;0.70;;;7.70;6.10;;;;;;5004815;28;20050;-89
2022/02/20 11:18:16;;;;;;;0.63;0.63;;;7.70;22.20;;;;;;5011173;28;20099;-87
2022/02/20 11:21:03;;;;;;;1.52;0.70;;;7.90;99.90;;;;;;5014791;28;20096;-86
2022/02/20 11:23:55;;;;;;;1.25;0.90;;;8.00;94.80;;;;;;5013993;28;20038;-85
2022/02/20 11:26:44;;;;;;;1.65;0.80;;;8.00;8.10;;;;;;5014832;28;20054;-80
2022/02/20 11:29:32;;;;;;;1.13;0.93;;;8.40;1.00;;;;;;5000820;28;20035;-84
2022/02/20 11:32:20;;;;;;;1.10;0.77;;;8.20;99.90;;;;;;5000245;28;20035;-85
2022/02/20 11:35:13;;;;;;;1.38;0.80;;;7.90;99.90;;;;;;5014130;28;20070;-85
2022/02/20 11:38:11;;;;;;;1.38;0.70;;;7.90;1.00;;;;;;5013052;28;20058;-80
2022/02/20 11:41:09;;;;;;;0.90;0.65;;;8.00;1.00;;;;;;5013151;28;20038;-81
2022/02/20 11:44:30;;;;;;;2.60;1.10;;;7.90;99.90;;;;;;4992490;28;20046;-81
2022/02/20 11:47:35;;;;;;;1.48;1.00;;;7.90;99.90;;;;;;5015015;28;20094;-82
2022/02/20 11:50:23;;;;;;;0.85;0.68;;;7.90;47.10;;;;;;5000715;28;20068;-81
2022/02/20 11:53:11;;;;;;;2.70;0.77;;;8.00;99.90;;;;;;5014409;28;20137;-84
2022/02/20 11:56:04;;;;;;;0.90;0.90;;;7.90;99.90;;;;;;4980916;28;20054;-83
2022/02/20 11:59:16;;;;;;;2.33;0.80;;;8.00;1.00;;;;;;4998472;28;20065;-83
2022/02/20 12:02:14;;;;;;;1.23;0.80;;;8.00;1.00;;;;;;4991614;28;20069;-81
2022/02/20 12:05:06;;;;;;;1.23;0.88;;;8.10;1.00;;;;;;4995628;28;20047;-84
2022/02/20 12:07:53;;;;;;;0.70;0.70;;;8.10;99.90;;;;;;5149908;23;20050;-84
2022/02/20 12:10:41;;;;;;;1.48;0.90;;;8.10;99.90;;;;;;5018715;28;20046;-80
2022/02/20 12:13:29;;;;;;;1.85;1.13;;;8.10;1.00;;;;;;5025324;28;20128;-84
2022/02/20 12:16:27;;;;;;;1.65;0.95;;;8.10;1.00;;;;;;5028913;28;20038;-85
2022/02/20 12:19:44;;;;;;;2.92;1.27;;;8.00;1.00;;;;;;5018124;28;20049;-84
2022/02/20 12:22:34;;;;;;;2.00;1.25;;;8.10;1.00;;;;;;5033396;28;20076;-83
2022/02/20 12:25:36;;;;;;;2.30;0.95;;;8.20;1.00;;;;;;5031902;28;20057;-86
2022/02/20 12:28:42;;;;;;;1.40;0.90;;;8.10;99.90;;;;;;5032399;28;20042;-81
2022/02/20 12:31:31;;;;;;;2.20;1.17;;;8.10;99.90;;;;;;5018429;28;20049;-85
2022/02/20 12:34:56;;;;;;;2.88;1.40;;;8.00;99.90;;;;;;5033516;28;20077;-82
2022/02/20 12:37:55;;;;;;;2.10;0.88;;;8.00;99.90;;;;;;5014527;28;20042;-88
2022/02/20 12:40:47;;;;;;;0.88;0.88;;;8.00;99.90;;;;;;5025459;28;20121;-89
2022/02/20 12:43:37;;;;;;;2.38;1.33;;;8.00;99.90;;;;;;5015283;28;20046;-86
2022/02/20 12:46:26;;;;;;;1.25;1.13;;;8.00;99.90;;;;;;5024069;28;20061;-84
2022/02/20 12:49:16;;;;;;;2.88;1.00;;;8.00;99.90;;;;;;5007570;28;20145;-87
2022/02/20 12:52:06;;;;;;;1.33;0.90;;;8.00;99.90;;;;;;5030789;28;20080;-87
2022/02/20 12:54:56;;;;;;;3.42;1.08;;;8.00;99.90;;;;;;5021992;28;20054;-86
2022/02/20 12:57:45;;;;;;;2.92;1.15;;;8.00;99.90;;;;;;5017928;28;20098;-87
2022/02/20 13:00:41;;;;;;;3.08;1.05;;;8.20;99.90;;;;;;5003562;28;20105;-89
2022/02/20 13:03:47;;;;;;;2.00;1.00;;;8.30;99.90;;;;;;4991017;28;20038;-88
2022/02/20 13:15:09;;;;;;;1.73;0.93;;;8.40;99.90;;;;;;5006055;28;20368;-87
2022/02/20 13:18:12;;;;;;;2.25;0.90;;;8.40;99.90;;;;;;5015497;28;20054;-86
2022/02/20 13:21:08;;;;;;;0.80;0.80;;;8.60;1.00;;;;;;5014428;28;20038;-85
2022/02/20 13:24:08;;;;;;;2.15;1.15;;;8.50;99.90;;;;;;5010385;28;20042;-91
2022/02/20 13:27:04;;;;;;;1.60;1.00;;;8.40;1.00;;;;;;5009576;28;20046;-83
2022/02/20 13:29:52;;;;;;;1.73;0.70;;;8.40;1.00;;;;;;5010965;28;20053;-86
2022/02/20 13:32:39;;;;;;;2.22;1.10;;;8.60;1.00;;;;;;5014766;28;20153;-87
2022/02/20 13:35:39;;;;;;;1.67;1.15;;;8.70;1.00;;;;;;4994584;28;20100;-86
2022/02/20 13:38:27;;;;;;;1.02;0.77;;;8.60;1.00;;;;;;5007088;28;20058;-91
2022/02/20 13:41:22;;;;;;;1.23;0.95;;;8.40;99.90;;;;;;5020125;28;20050;-86
2022/02/20 13:44:33;;;;;;;2.15;1.15;;;8.40;99.90;;;;;;5016535;28;20061;-83
2022/02/20 13:47:31;;;;;;;2.08;0.82;;;8.40;99.90;;;;;;5001542;28;20050;-85
2022/02/20 13:50:19;;;;;;;2.47;0.90;;;8.30;1.00;;;;;;5012110;28;20108;-86
2022/02/20 13:53:06;;;;;;;1.33;0.70;;;8.20;99.90;;;;;;5020507;28;20058;-89
2022/02/20 13:55:54;;;;;;;1.60;0.90;;;8.20;99.90;;;;;;5017204;28;20054;-92
2022/02/20 13:58:54;;;;;;;2.00;0.85;;;8.20;1.00;;;;;;5020240;28;20077;-87
2022/02/20 14:01:59;;;;;;;1.80;0.85;;;8.10;99.90;;;;;;5017013;28;20060;-86
2022/02/20 14:04:54;;;;;;;1.42;0.98;;;8.10;36.40;;;;;;5026138;28;20104;-89
2022/02/20 14:07:43;;;;;;;1.02;0.80;;;8.10;99.90;;;;;;4999820;28;20049;-89
2022/02/20 14:10:31;;;;;;;1.85;0.80;;;8.20;85.70;;;;;;5013266;28;20053;-88
2022/02/20 14:13:19;;;;;;;1.17;0.90;;;8.20;99.90;;;;;;5012529;28;20057;-92
2022/02/20 14:16:11;;;;;;;1.20;0.70;;;8.00;99.90;;;;;;5015916;28;20059;-90
2022/02/20 14:18:58;;;;;;;2.42;0.82;;;8.00;1.00;;;;;;5010899;28;20049;-89
2022/02/20 14:21:58;;;;;;;1.60;0.95;;;8.00;1.00;;;;;;5015031;28;20064;-84
2022/02/20 14:24:59;;;;;;;1.23;0.90;;;8.00;1.00;;;;;;5010060;28;20061;-87
2022/02/20 14:27:59;;;;;;;1.63;1.15;;;8.00;1.00;;;;;;5014519;28;20497;-86
2022/02/20 14:30:50;;;;;;;0.95;0.90;;;8.10;1.00;;;;;;5010014;28;20049;-85
2022/02/20 14:33:42;;;;;;;1.77;0.90;;;8.10;99.90;;;;;;5019407;28;20054;-85
2022/02/20 14:36:31;;;;;;;2.63;0.85;;;8.10;99.90;;;;;;5019407;28;20145;-85
2022/02/20 14:39:30;;;;;;;0.63;0.63;;;8.10;99.90;;;;;;5017126;28;20052;-87
2022/02/20 14:42:21;;;;;;;1.15;0.82;;;8.10;99.90;;;;;;5016116;28;20094;-85
2022/02/20 14:45:13;;;;;;;1.60;0.85;;;8.10;1.00;;;;;;5014807;28;20061;-85
2022/02/20 14:48:02;;;;;;;2.05;1.13;;;8.10;1.00;;;;;;5012605;28;20079;-86
2022/02/20 14:51:04;;;;;;;1.77;1.30;;;8.10;99.90;;;;;;5010320;28;20042;-85
2022/02/20 14:53:51;;;;;;;3.15;0.93;;;8.10;44.20;;;;;;5005592;28;20109;-84
2022/02/20 14:56:40;;;;;;;2.13;1.10;;;8.00;63.50;;;;;;5009290;28;20205;-81
2022/02/20 14:59:34;;;;;;;2.35;1.17;;;8.00;99.90;;;;;;5013340;28;20038;-86
2022/02/20 15:02:21;;;;;;;0.85;0.82;;;8.00;1.00;;;;;;5012264;28;20053;-87
2022/02/20 15:05:29;;;;;;;1.05;0.88;;;8.00;31.30;;;;;;4998144;28;20052;-84
2022/02/20 15:08:17;;;;;;;2.38;1.10;;;8.00;1.00;;;;;;5007134;28;20081;-84
2022/02/20 15:11:06;;;;;;;0.90;0.70;;;8.00;1.00;;;;;;5010135;28;20045;-84
2022/02/20 15:13:54;;;;;;;2.10;0.80;;;8.00;1.00;;;;;;4986524;28;20452;-86
2022/02/20 15:16:41;;;;;;;1.38;0.82;;;8.00;1.00;;;;;;5009930;28;20404;-88
2022/02/20 15:19:30;;;;;;;1.35;0.95;;;8.00;24.00;;;;;;5006054;28;20048;-85
2022/02/20 15:22:19;;;;;;;1.77;0.90;;;8.00;1.00;;;;;;5004219;28;20455;-85
2022/02/20 15:25:08;;;;;;;1.55;1.00;;;7.90;23.90;;;;;;5000704;28;20053;-89
2022/02/20 15:28:24;;;;;;;1.53;1.30;;;8.00;99.90;;;;;;4996193;28;20042;-85
2022/02/20 15:31:37;;;;;;;1.15;0.95;;;7.90;99.90;;;;;;5006846;28;20102;-87
2022/02/20 15:34:27;;;;;;;2.53;1.10;;;7.90;99.90;;;;;;4997884;28;20053;-87
2022/02/20 15:37:14;;;;;;;1.50;1.20;;;7.90;1.00;;;;;;5007253;28;20065;-84
2022/02/20 15:40:04;;;;;;;0.98;0.80;;;7.80;99.90;;;;;;5017305;28;20045;-82
2022/02/20 15:42:51;;;;;;;2.05;1.02;;;7.80;99.90;;;;;;5024334;28;20064;-84
2022/02/20 15:45:42;;;;;;;2.03;1.00;;;7.80;99.90;;;;;;5022197;28;20060;-85